Tampa Macdill AFB, FL

9:35 PM EST on January 21, 2018 (GMT -0500)
MacDill Air Force Base

Weather History for KMCF - January, 2014

Change the Weather History Date:

Sunday, January 26, 2014

  Actual Average Record
Temperature  
Mean Temperature 59 °F -  
Max Temperature 64 °F 68 °F 81 °F (2012)
Min Temperature 54 °F 50 °F 41 °F (2000)
Degree Days  
Heating Degree Days 6    
Growing Degree Days 9 (Base 50)    
Moisture  
Dew Point 59 °F    
Average Humidity 97    
Maximum Humidity 100    
Minimum Humidity 77    
Precipitation  
Precipitation 0.07 in - - ()
Sea Level Pressure  
Sea Level Pressure 30.04 in    
Wind  
Wind Speed 4 mph (SE)    
Max Wind Speed 7 mph    
Max Gust Speed -    
Visibility 9 miles    
Events Rain    
Averages and records for this station are not official NWS values.
T = Trace of Precipitation, MM = Missing Value Source: NWS Daily Summary

Daily Weather History Graph

Daily Weather History Graph

Search for Another Location

Airport or City:

Trip Planner

Search our weather history database for the weather conditions in past years. The results will help you decide how hot, cold, wet, or windy it might be!

Date:

Astronomy

Jan. 26, 2014 Rise Set
Actual Time 7:19 AM EST 6:05 PM EST
Civil Twilight 6:54 AM EST 6:30 PM EST
Nautical Twilight 6:26 AM EST 6:58 PM EST
Astronomical Twilight 5:58 AM EST 7:26 PM EST
Moon 2:54 AM EST (1/26) 1:56 PM EST (1/26)
Length of Visible Light 11h 35m
Length of Day
10h 46m
Waning Crescent, 24% of the Moon is Illuminated
Jan 26
Waning Crescent
Jan 30
New
Feb 6
First Quarter
Feb 14
Full
Feb 22
Last Quarter

Hourly Weather History & Observations

Time (EST) Temp. Dew Point Humidity Pressure Visibility Wind Dir Wind Speed Gust Speed Precip Events Conditions
12:58 AM 55.8 °F 55.6 °F 99% 30.06 in 10.0 mi SW 2.3 mph - N/A   Clear
1:58 AM 54.5 °F 54.3 °F 99% 30.05 in 10.0 mi SW 5.8 mph - N/A   Mostly Cloudy
2:58 AM 57.6 °F 57.2 °F 99% 30.04 in 10.0 mi SSW 5.8 mph - N/A   Overcast
3:23 AM 57.2 °F 57.2 °F 100% 30.03 in 10.0 mi SW 4.6 mph - N/A   Overcast
3:43 AM 57.2 °F 57.2 °F 100% 30.03 in 10.0 mi WSW 4.6 mph - N/A   Light Drizzle
3:48 AM 57.2 °F 57.2 °F 100% 30.03 in 8.0 mi WSW 5.8 mph - N/A Rain Light Rain
3:53 AM 57.2 °F 57.2 °F 100% 30.03 in 6.0 mi WSW 6.9 mph - N/A Rain Light Rain
3:58 AM 57.9 °F 57.6 °F 99% 30.04 in 7.0 mi WSW 5.8 mph - 0.01 in Rain Light Rain
4:06 AM 57.2 °F 57.2 °F 100% 30.03 in 10.0 mi WSW 5.8 mph - N/A   Overcast
4:11 AM 57.2 °F 57.2 °F 100% 30.03 in 10.0 mi WSW 5.8 mph - N/A   Overcast
4:21 AM 59.0 °F 57.2 °F 94% 30.03 in 10.0 mi SW 3.5 mph - N/A   Overcast
4:31 AM 59.0 °F 57.2 °F 94% 30.03 in 10.0 mi WSW 5.8 mph - N/A   Light Drizzle
4:36 AM 59.0 °F 57.2 °F 94% 30.04 in 9.0 mi WSW 4.6 mph - N/A Rain Light Rain
4:41 AM 59.0 °F 57.2 °F 94% 30.04 in 9.0 mi West 5.8 mph - N/A Rain Light Rain
4:58 AM 58.6 °F 58.6 °F 100% 30.05 in 10.0 mi West 3.5 mph - 0.02 in   Light Drizzle
4:59 AM 59.0 °F 59.0 °F 100% 30.03 in 10.0 mi West 3.5 mph - N/A   Overcast
5:29 AM 59.0 °F 59.0 °F 100% 30.04 in 10.0 mi North 4.6 mph - N/A   Overcast
5:39 AM 59.0 °F 59.0 °F 100% 30.04 in 10.0 mi Variable 4.6 mph - N/A   Overcast
5:54 AM 59.0 °F 59.0 °F 100% 30.04 in 10.0 mi North 5.8 mph - N/A   Overcast
5:58 AM 58.6 °F 58.6 °F 100% 30.06 in 10.0 mi North 5.8 mph - 0.00 in   Overcast
6:18 AM 57.2 °F 57.2 °F 100% 30.05 in 10.0 mi NNE 4.6 mph - N/A   Overcast
6:28 AM 57.2 °F 57.2 °F 100% 30.04 in 10.0 mi NNE 6.9 mph - N/A   Overcast
6:58 AM 57.4 °F 57.4 °F 100% 30.07 in 10.0 mi NNE 5.8 mph - N/A   Overcast
7:08 AM 57.2 °F 57.2 °F 100% 30.06 in 10.0 mi NNE 2.3 mph - N/A   Overcast
7:23 AM 57.2 °F 57.2 °F 100% 30.06 in 10.0 mi North 2.3 mph - N/A   Overcast
7:58 AM 56.8 °F 56.5 °F 99% 30.08 in 10.0 mi NE 3.5 mph - N/A   Overcast
8:28 AM 57.2 °F 55.4 °F 94% 30.07 in 10.0 mi NE 5.8 mph - N/A   Overcast
8:58 AM 56.8 °F 56.5 °F 99% 30.09 in 10.0 mi ENE 5.8 mph - N/A   Overcast
9:03 AM 57.2 °F 57.2 °F 100% 30.08 in 10.0 mi ENE 5.8 mph - N/A   Overcast
9:58 AM 58.6 °F 58.3 °F 99% 30.10 in 10.0 mi ENE 6.9 mph - N/A   Overcast
10:58 AM 61.0 °F 58.3 °F 91% 30.11 in 10.0 mi East 4.6 mph - N/A   Overcast
11:58 AM 62.4 °F 55.9 °F 79% 30.10 in 10.0 mi East 4.6 mph - N/A   Overcast
12:43 PM 62.6 °F 55.4 °F 77% 30.07 in 10.0 mi ESE 2.3 mph - N/A   Overcast
12:58 PM 62.1 °F 56.1 °F 81% 30.07 in 10.0 mi East 3.5 mph - N/A   Overcast
1:58 PM 63.1 °F 58.3 °F 84% 30.04 in 10.0 mi South 5.8 mph - N/A   Overcast
2:13 PM 62.6 °F 59.0 °F 88% 30.02 in 10.0 mi SSE 5.8 mph - N/A   Overcast
2:28 PM 62.6 °F 59.0 °F 88% 30.02 in 10.0 mi South 3.5 mph - N/A   Overcast
2:58 PM 64.0 °F 60.1 °F 87% 30.03 in 10.0 mi SSE 4.6 mph - N/A   Overcast
3:03 PM 64.4 °F 60.8 °F 88% 30.01 in 10.0 mi SSE 3.5 mph - N/A   Overcast
3:34 PM 64.4 °F 60.8 °F 88% 30.01 in 10.0 mi SE 2.3 mph - N/A   Light Drizzle
3:58 PM 63.1 °F 60.3 °F 90% 30.02 in 9.0 mi North 2.3 mph - 0.00 in Rain Light Rain
4:43 PM 60.8 °F 59.0 °F 94% 30.01 in 10.0 mi NE 2.3 mph - N/A   Overcast
4:58 PM 61.0 °F 60.3 °F 97% 30.01 in 10.0 mi ESE 3.5 mph - 0.02 in   Overcast
5:30 PM 60.8 °F 60.8 °F 100% 30.01 in 10.0 mi ESE 2.3 mph - N/A   Light Drizzle
5:50 PM 62.6 °F 62.6 °F 100% 30.00 in 8.0 mi ESE 2.3 mph - N/A   Light Drizzle
5:54 PM 62.6 °F 62.6 °F 100% 30.00 in 10.0 mi ENE 2.3 mph - N/A   Overcast
5:58 PM 61.7 °F 61.7 °F 100% 30.01 in 10.0 mi ENE 2.3 mph - 0.00 in   Overcast
6:58 PM 60.8 °F 60.4 °F 99% 30.02 in 10.0 mi East 2.3 mph - N/A   Overcast
7:58 PM 60.6 °F 60.3 °F 99% 30.02 in 8.0 mi ESE 1.2 mph - N/A   Overcast
8:10 PM 60.8 °F 60.8 °F 100% 30.02 in 8.0 mi Calm Calm - N/A Rain Light Rain
8:15 PM 60.8 °F 60.8 °F 100% 30.02 in 6.0 mi East 1.2 mph - N/A Rain Light Rain
8:30 PM 60.8 °F 60.8 °F 100% 30.02 in 7.0 mi SSE 2.3 mph - N/A   Overcast
8:33 PM 60.8 °F 60.8 °F 100% 30.02 in 7.0 mi South 2.3 mph - N/A Rain Light Rain
8:38 PM 60.8 °F 60.8 °F 100% 30.02 in 5.0 mi SSE 1.2 mph - N/A Rain Light Rain
8:53 PM 60.8 °F 60.8 °F 100% 30.02 in 7.0 mi ENE 2.3 mph - N/A   Light Drizzle
8:54 PM 60.8 °F 60.8 °F 100% 30.02 in 7.0 mi ENE 2.3 mph - N/A   Overcast
8:58 PM 61.0 °F 61.0 °F 100% 30.03 in 7.0 mi ENE 2.3 mph - 0.02 in   Overcast
9:48 PM 60.8 °F 60.8 °F 100% 30.02 in 4.0 mi SE 4.6 mph - N/A   Overcast
9:58 PM 61.2 °F 61.2 °F 100% 30.04 in 5.0 mi SSE 3.5 mph - N/A   Overcast
10:13 PM 60.8 °F 60.8 °F 100% 30.03 in 6.0 mi SE 4.6 mph - N/A   Overcast
10:58 PM 61.3 °F 61.3 °F 100% 30.03 in 9.0 mi SE 5.8 mph - N/A   Overcast
11:13 PM 60.8 °F 60.8 °F 100% 30.02 in 10.0 mi ESE 3.5 mph - N/A   Mostly Cloudy
11:38 PM 60.8 °F 60.8 °F 100% 30.01 in 10.0 mi SSE 5.8 mph - N/A   Light Drizzle
11:47 PM 60.8 °F 60.8 °F 100% 30.01 in 10.0 mi SSE 5.8 mph - N/A   Mostly Cloudy
11:55 PM 60.8 °F 60.8 °F 100% 30.00 in 10.0 mi SSE 5.8 mph - N/A   Light Drizzle
11:58 PM 61.3 °F 61.3 °F 100% 30.01 in 10.0 mi SE 5.8 mph - 0.00 in Rain Light Rain